Everton, Arkansas
Current Conditions -  °F | °C
As of 11:53 PM on Monday 26 Jan 2015 (Local Time) from KHRO Reporting Station
Clear Clear  
Wind Chill: 50°   Ceiling: Unl
Heat Index: 50°   Visibility: 10mi
Dew Point: 35°   Wind: 9mph
Humidity: 57%   Direction: 290°WNW
Pressure: 30"   Gusts: NA
Location:  36.16°N, 92.91°W
Report Text: KHRO 270553Z AUTO 29008KT 10SM CLR 10/02 A3000 RMK AO2 SLP156 T01000017 10122 20094 401560006 51003
Loading
Personal Weather Stations






























Interactive Weather Map New forecast layout! Learn more

10-Day Weather Forecast

Advertisements
Track Severe Weather on mobile